Time;durP1;ratioP1;P1;durP2;ratioP2;P2;SDS_P1;SDS_P2;PMS_P1;PMS_P2;Temp;Humidity;BMP_temperature;BMP_pressure;BME280_temperature;BME280_humidity;BME280_pressure;Samples;Min_cycle;Max_cycle;Signal;HPM_P1;HPM_P2
2023/10/10 00:00:04;;;;;;;11.63;5.73;;;;;;;15.05;59.31;94936.63;5113346;28;20189;-43
2023/10/10 00:02:32;;;;;;;15.13;6.40;;;;;;;14.82;59.65;94899.59;5102884;28;20658;-43
2023/10/10 00:05:12;;;;;;;12.60;6.27;;;;;;;15.05;59.30;94945.16;5093121;28;20253;-44
2023/10/10 00:07:40;;;;;;;10.77;5.83;;;;;;;15.05;59.17;94937.44;5092948;28;20640;-44
2023/10/10 00:10:13;;;;;;;7.10;5.17;;;;;;;15.06;59.20;94933.88;5110493;28;20628;-43
2023/10/10 00:12:40;;;;;;;8.97;5.40;;;;;;;15.13;59.01;94928.09;5113413;28;20189;-45
2023/10/10 00:15:10;;;;;;;11.47;5.67;;;;;;;15.14;58.84;94922.78;5113989;28;20196;-43
2023/10/10 00:17:38;;;;;;;9.67;5.67;;;;;;;15.19;58.72;94920.53;5115471;28;20269;-43
2023/10/10 00:20:17;;;;;;;11.47;6.00;;;;;;;15.23;58.81;94914.09;5114578;28;20204;-45
2023/10/10 00:22:47;;;;;;;10.20;5.63;;;;;;;15.26;58.77;94915.56;5112619;28;20219;-43
2023/10/10 00:25:28;;;;;;;14.17;5.77;;;;;;;15.34;58.30;94915.56;5112846;28;20276;-44
2023/10/10 00:27:59;;;;;;;11.10;5.53;;;;;;;15.35;58.00;94913.78;5113097;28;20181;-45
2023/10/10 00:30:33;;;;;;;11.30;5.63;;;;;;;15.36;57.61;94915.38;5113600;28;20189;-44
2023/10/10 00:33:02;;;;;;;12.00;5.10;;;;;;;15.38;57.32;94918.63;5112910;28;20195;-43
2023/10/10 00:35:31;;;;;;;7.07;4.80;;;;;;;15.39;57.50;94915.88;5113044;28;20208;-44
2023/10/10 00:37:59;;;;;;;12.23;5.37;;;;;;;15.38;57.52;94905.75;5108088;28;20204;-43
2023/10/10 00:40:30;;;;;;;7.80;5.47;;;;;;;15.42;57.93;94909.59;5092422;28;20194;-44
2023/10/10 00:42:59;;;;;;;9.33;5.57;;;;;;;15.42;57.98;94910.41;5092082;28;20615;-44
2023/10/10 00:45:33;;;;;;;13.50;5.60;;;;;;;15.32;58.03;94895.09;5092335;28;20193;-42
2023/10/10 00:48:04;;;;;;;10.53;6.63;;;;;;;15.47;58.28;94918.44;5092327;28;20746;-45
2023/10/10 00:50:34;;;;;;;9.13;5.33;;;;;;;15.51;58.02;94913.78;5092649;28;20196;-44
2023/10/10 00:53:03;;;;;;;8.67;4.83;;;;;;;15.51;57.98;94918.94;5091763;28;20229;-48
2023/10/10 00:55:33;;;;;;;9.37;5.63;;;;;;;15.52;57.93;94923.13;5092334;28;20204;-45
2023/10/10 00:58:01;;;;;;;11.77;5.90;;;;;;;15.59;58.17;94925.84;5091639;28;20568;-46
2023/10/10 01:00:31;;;;;;;13.50;4.80;;;;;;;15.59;57.99;94910.38;5092444;28;20190;-44
2023/10/10 01:03:07;;;;;;;11.67;5.53;;;;;;;15.64;58.07;94908.97;5091922;28;20216;-43
2023/10/10 01:05:40;;;;;;;10.00;4.60;;;;;;;15.74;58.74;94907.00;5092098;28;20194;-44
2023/10/10 01:08:09;;;;;;;13.33;5.47;;;;;;;15.78;58.60;94908.28;5092328;28;20189;-45
2023/10/10 01:10:43;;;;;;;8.63;4.57;;;;;;;15.89;58.68;94907.16;5091714;28;20191;-42
2023/10/10 01:13:10;;;;;;;11.30;4.30;;;;;;;16.01;58.79;94899.84;5091450;28;20574;-44
2023/10/10 01:15:37;;;;;;;8.87;3.83;;;;;;;16.12;59.12;94896.91;5091563;28;20185;-45
2023/10/10 01:18:12;;;;;;;9.97;3.47;;;;;;;16.17;59.73;94874.00;5092364;28;20201;-44
2023/10/10 01:20:46;;;;;;;12.13;3.63;;;;;;;16.49;60.38;94891.13;5092009;28;20663;-46
2023/10/10 01:23:14;;;;;;;10.73;3.37;;;;;;;16.70;60.04;94889.72;5091965;28;20225;-43
2023/10/10 01:25:42;;;;;;;7.57;3.20;;;;;;;16.88;59.76;94903.22;5091331;28;20733;-43
2023/10/10 01:31:03;;;;;;;8.47;3.33;;;;;;;17.09;59.04;94894.81;5087317;28;20277;-44
2023/10/10 01:33:41;;;;;;;6.97;3.33;;;;;;;17.17;58.61;94893.94;5091831;28;20376;-45
2023/10/10 01:36:13;;;;;;;10.27;3.50;;;;;;;17.39;58.14;94895.72;5091229;28;20200;-43
2023/10/10 01:39:24;;;;;;;6.57;2.80;;;;;;;17.47;57.96;94897.44;5091927;28;20177;-44
2023/10/10 01:41:51;;;;;;;7.03;3.43;;;;;;;17.59;57.64;94905.56;4988949;28;20323;-45
2023/10/10 01:44:22;;;;;;;6.87;3.00;;;;;;;17.64;57.51;94914.41;4989107;28;20237;-44
2023/10/10 01:46:51;;;;;;;8.13;3.23;;;;;;;17.74;57.24;94914.97;4989075;28;20241;-43
2023/10/10 01:49:21;;;;;;;8.67;3.27;;;;;;;17.78;57.07;94908.47;4989268;28;20197;-44
2023/10/10 01:51:55;;;;;;;11.37;3.67;;;;;;;17.83;56.81;94922.66;4989248;28;20303;-44
2023/10/10 01:54:23;;;;;;;6.47;3.13;;;;;;;17.89;56.48;94927.97;4988807;28;20247;-44
2023/10/10 01:56:53;;;;;;;14.13;3.57;;;;;;;17.94;56.28;94919.66;4988841;28;20181;-46
2023/10/10 01:59:24;;;;;;;13.40;3.53;;;;;;;17.97;56.26;94917.53;4988599;28;20701;-44
2023/10/10 02:01:53;;;;;;;8.80;3.40;;;;;;;18.00;56.03;94917.19;4989398;28;20715;-46
2023/10/10 02:04:28;;;;;;;7.13;2.80;;;;;;;17.99;56.09;94907.00;4989115;28;20232;-46
2023/10/10 02:07:04;;;;;;;5.90;3.00;;;;;;;18.07;55.97;94930.19;4989371;28;20193;-44
2023/10/10 02:09:34;;;;;;;10.57;3.63;;;;;;;18.13;55.73;94931.25;4988612;28;20204;-44
2023/10/10 02:12:12;;;;;;;6.30;3.13;;;;;;;18.20;55.56;94942.53;4988662;28;20197;-45
2023/10/10 02:14:42;;;;;;;8.87;3.37;;;;;;;18.19;54.19;94940.91;4987721;28;20662;-43
2023/10/10 02:17:20;;;;;;;7.17;3.13;;;;;;;17.95;53.37;94916.09;4992775;28;20653;-45
2023/10/10 02:20:17;;;;;;;5.53;2.73;;;;;;;18.03;53.51;94937.50;5082577;28;20200;-44
2023/10/10 02:23:01;;;;;;;12.23;3.30;;;;;;;18.06;53.39;94946.72;5090149;28;20221;-44
2023/10/10 02:25:39;;;;;;;8.17;2.80;;;;;;;18.00;53.59;94944.81;5090147;28;20193;-45
2023/10/10 02:28:10;;;;;;;6.80;3.03;;;;;;;18.02;53.05;94941.09;5090437;28;20201;-44
2023/10/10 02:30:38;;;;;;;6.43;2.83;;;;;;;17.92;52.99;94930.19;5090205;28;20196;-45
2023/10/10 02:33:15;;;;;;;11.70;2.97;;;;;;;17.97;53.06;94927.06;5089669;28;20280;-45
2023/10/10 02:35:57;;;;;;;8.17;3.30;;;;;;;17.94;53.43;94919.66;5090117;28;20227;-44
2023/10/10 02:38:31;;;;;;;8.63;2.83;;;;;;;17.91;53.95;94922.59;5089856;28;20192;-45
2023/10/10 02:41:15;;;;;;;7.33;2.90;;;;;;;17.97;54.19;94927.06;5089656;28;20192;-45
2023/10/10 02:43:55;;;;;;;5.40;2.83;;;;;;;17.04;54.60;94793.75;5089652;28;20696;-43
2023/10/10 02:46:33;;;;;;;13.50;3.27;;;;;;;17.91;55.19;94920.81;5089607;28;20269;-43
2023/10/10 02:49:09;;;;;;;7.60;2.80;;;;;;;17.98;56.41;94920.91;5089665;28;20190;-44
2023/10/10 02:51:40;;;;;;;5.07;2.90;;;;;;;17.97;56.47;94908.97;5089093;28;20221;-45
2023/10/10 02:54:21;;;;;;;6.60;2.97;;;;;;;17.89;56.77;94903.88;5089435;28;20203;-45
2023/10/10 02:56:48;;;;;;;7.67;2.93;;;;;;;17.96;57.14;94918.50;5089336;28;20186;-44
2023/10/10 02:59:21;;;;;;;8.40;3.60;;;;;;;17.97;57.52;94921.91;5089502;28;20190;-43
2023/10/10 03:01:56;;;;;;;9.17;3.17;;;;;;;17.89;57.72;94906.47;5088814;28;20193;-44
2023/10/10 03:04:52;;;;;;;9.50;3.17;;;;;;;17.95;57.79;94913.50;5089255;28;20224;-44
2023/10/10 03:07:19;;;;;;;7.73;3.10;;;;;;;17.46;57.76;94833.78;5089347;28;20197;-43
2023/10/10 03:12:29;;;;;;;7.23;3.30;;;;;;;17.91;57.75;94912.25;5089178;28;20182;-43
2023/10/10 03:15:12;;;;;;;6.17;3.10;;;;;;;17.97;57.57;94914.94;5089615;28;20251;-44
2023/10/10 03:17:45;;;;;;;7.63;2.90;;;;;;;18.01;57.68;94913.59;5089554;28;20676;-44
2023/10/10 03:20:25;;;;;;;10.00;2.93;;;;;;;18.01;57.63;94916.19;5089424;28;20265;-46
2023/10/10 03:23:18;;;;;;;9.07;2.80;;;;;;;18.04;58.20;94917.59;5090022;28;20416;-45
2023/10/10 03:25:50;;;;;;;10.20;3.40;;;;;;;17.95;58.06;94911.72;5092094;28;20190;-45
2023/10/10 03:28:22;;;;;;;9.27;3.53;;;;;;;17.98;58.23;94928.69;5094444;28;20235;-46
2023/10/10 03:30:52;;;;;;;6.80;3.33;;;;;;;17.98;58.37;94926.09;5094790;28;20185;-46
2023/10/10 03:33:37;;;;;;;7.23;2.73;;;;;;;18.00;58.38;94929.28;5094486;28;20189;-44
2023/10/10 05:23:47;;;;;;;10.57;3.33;;;;;;;18.33;63.19;95017.00;5111584;28;20270;-45
2023/10/10 05:26:15;;;;;;;8.50;3.73;;;;;;;18.37;63.35;95018.25;5112086;28;20196;-45
2023/10/10 05:28:45;;;;;;;9.97;4.13;;;;;;;18.40;63.46;95017.91;5111496;28;20227;-45
2023/10/10 05:31:17;;;;;;;8.43;4.00;;;;;;;18.34;63.33;95018.59;5112128;28;20193;-44
2023/10/10 05:33:47;;;;;;;7.80;3.53;;;;;;;18.31;63.40;95017.19;5111678;28;20629;-45
2023/10/10 05:36:18;;;;;;;12.30;4.63;;;;;;;18.35;63.24;95020.19;5111841;28;20268;-45
2023/10/10 05:38:46;;;;;;;9.27;4.30;;;;;;;18.33;63.27;95030.72;5111372;28;20772;-46
2023/10/10 05:41:13;;;;;;;7.37;3.53;;;;;;;18.32;63.29;95025.75;5111839;28;20184;-44
2023/10/10 05:43:40;;;;;;;10.20;3.07;;;;;;;18.16;63.43;94999.03;5078268;28;20570;-44
2023/10/10 05:46:08;;;;;;;4.77;2.97;;;;;;;18.38;63.38;95028.41;5089814;28;20213;-44
2023/10/10 05:48:36;;;;;;;7.13;3.10;;;;;;;18.18;63.12;94999.66;5088815;28;20197;-44
2023/10/10 05:51:04;;;;;;;11.53;3.70;;;;;;;18.44;63.08;95034.69;5089373;28;20687;-43
2023/10/10 05:53:33;;;;;;;9.00;3.40;;;;;;;18.52;63.04;95026.81;5090104;28;20193;-45
2023/10/10 05:56:12;;;;;;;7.47;4.23;;;;;;;18.59;62.67;95022.53;5089743;28;20189;-44
2023/10/10 05:58:42;;;;;;;10.17;3.60;;;;;;;18.73;62.51;95031.31;5089358;28;20356;-44
2023/10/10 06:01:12;;;;;;;8.20;3.53;;;;;;;18.71;62.02;95018.53;5090198;28;20277;-46
2023/10/10 06:03:40;;;;;;;7.27;3.20;;;;;;;18.85;61.71;94996.19;5090118;28;20266;-45
2023/10/10 06:06:07;;;;;;;7.57;3.73;;;;;;;19.35;61.15;95043.03;5090027;28;20353;-44
2023/10/10 06:08:36;;;;;;;6.83;3.10;;;;;;;19.43;60.47;95022.97;5090538;28;20193;-44
2023/10/10 06:11:06;;;;;;;8.40;3.60;;;;;;;19.71;59.97;95024.84;5090082;28;20204;-44
2023/10/10 06:13:38;;;;;;;9.23;4.00;;;;;;;19.80;59.55;95028.94;5090342;28;20217;-45
2023/10/10 06:16:09;;;;;;;6.83;3.37;;;;;;;19.83;59.31;95027.78;5089903;28;20197;-45
2023/10/10 06:18:36;;;;;;;4.47;3.17;;;;;;;19.90;58.68;95034.59;5089675;28;20181;-45
2023/10/10 06:21:07;;;;;;;11.40;3.80;;;;;;;19.82;59.01;95026.13;5091618;28;20189;-44
2023/10/10 06:23:36;;;;;;;7.40;3.30;;;;;;;19.75;59.38;95031.28;5092062;28;20197;-45
2023/10/10 06:26:03;;;;;;;5.70;3.13;;;;;;;19.78;59.51;95028.31;5090244;28;20181;-44
2023/10/10 06:28:35;;;;;;;7.10;4.47;;;;;;;19.83;59.24;95030.38;5089370;28;20725;-46
2023/10/10 06:31:04;;;;;;;4.20;3.33;;;;;;;19.73;59.11;94997.75;5088724;28;20200;-44
2023/10/10 06:33:33;;;;;;;6.80;3.27;;;;;;;19.95;58.70;95027.06;5090604;28;20613;-44
2023/10/10 06:36:25;;;;;;;13.83;4.17;;;;;;;19.93;58.41;95023.84;5088875;28;20653;-45
2023/10/10 06:39:18;;;;;;;6.93;3.60;;;;;;;19.93;58.37;95026.44;5088546;28;20367;-45
2023/10/10 06:41:49;;;;;;;8.23;3.40;;;;;;;20.04;57.92;95035.53;5091983;28;20433;-44
2023/10/10 06:44:31;;;;;;;6.50;3.57;;;;;;;20.17;57.66;95033.03;5088523;28;20225;-45
2023/10/10 06:47:00;;;;;;;6.80;3.70;;;;;;;20.47;57.35;95036.25;5087325;28;20282;-45
2023/10/10 06:49:43;;;;;;;10.00;3.55;;;;;;;20.69;56.58;95046.59;5088644;28;20688;-45
2023/10/10 06:52:14;;;;;;;7.75;4.18;;;;;;;20.38;56.61;94985.44;5088297;28;20229;-43
2023/10/10 06:54:45;;;;;;;7.40;3.40;;;;;;;20.83;56.22;95040.47;5088963;28;20234;-43
2023/10/10 06:57:17;;;;;;;7.93;3.63;;;;;;;19.93;56.11;94895.84;5088498;28;20184;-43
2023/10/10 06:59:44;;;;;;;8.35;4.05;;;;;;;20.91;55.90;95050.72;5085285;28;20280;-44
2023/10/10 07:02:20;;;;;;;8.07;3.60;;;;;;;20.81;55.56;95032.03;5088619;28;20192;-43
2023/10/10 07:04:52;;;;;;;7.50;3.78;;;;;;;21.02;55.50;95063.16;5088770;28;20205;-44
2023/10/10 07:07:20;;;;;;;11.20;3.70;;;;;;;21.20;55.49;95067.03;5088444;28;20181;-43
2023/10/10 07:09:57;;;;;;;6.30;3.72;;;;;;;21.46;54.61;95061.97;5089727;28;20189;-50
2023/10/10 07:12:28;;;;;;;7.85;3.47;;;;;;;21.73;53.33;95041.22;5086560;28;20270;-44
2023/10/10 07:14:55;;;;;;;5.80;3.80;;;;;;;22.04;53.09;95075.28;5088664;28;20204;-44
2023/10/10 07:17:27;;;;;;;6.57;3.50;;;;;;;22.11;52.60;95070.09;5089478;28;20185;-42
2023/10/10 07:22:37;;;;;;;8.57;3.38;;;;;;;22.19;52.40;95063.91;5092122;28;20181;-46
2023/10/10 07:25:18;;;;;;;9.20;3.60;;;;;;;22.18;52.50;95064.91;5095949;28;20282;-44
2023/10/10 07:27:45;;;;;;;7.57;3.50;;;;;;;22.27;52.45;95056.69;5091459;28;20209;-44
2023/10/10 07:30:17;;;;;;;6.05;3.60;;;;;;;22.27;52.49;95068.91;5092460;28;20193;-44
2023/10/10 07:32:44;;;;;;;10.27;3.85;;;;;;;22.17;53.04;95063.31;5090649;28;20268;-44
2023/10/10 07:35:15;;;;;;;6.65;3.22;;;;;;;22.18;53.13;95065.69;5089483;28;20197;-44
2023/10/10 07:37:43;;;;;;;7.20;4.22;;;;;;;22.32;53.21;95063.09;5088171;28;20233;-43
2023/10/10 07:40:21;;;;;;;6.43;3.50;;;;;;;22.43;53.16;95072.91;5088984;28;20194;-44
2023/10/10 07:42:51;;;;;;;8.93;3.55;;;;;;;22.33;52.99;95049.09;5090449;28;20186;-45
2023/10/10 07:45:26;;;;;;;6.50;3.78;;;;;;;22.44;53.07;95069.31;5087760;28;20217;-43
2023/10/10 07:50:35;;;;;;;10.07;3.72;;;;;;;22.53;52.56;95070.69;5088099;28;20653;-44
2023/10/10 07:53:05;;;;;;;8.35;4.15;;;;;;;22.50;52.59;95066.72;5088025;28;20221;-45
2023/10/10 07:55:52;;;;;;;10.15;3.72;;;;;;;22.68;52.25;95062.66;5090782;28;20190;-44
2023/10/10 07:58:20;;;;;;;14.75;4.22;;;;;;;23.03;51.49;95071.84;5088860;28;20205;-43
2023/10/10 08:00:47;;;;;;;8.73;3.53;;;;;;;23.27;50.31;95070.34;5088357;28;20285;-46
2023/10/10 08:03:19;;;;;;;9.15;3.50;;;;;;;23.14;50.36;95056.53;5089414;28;20212;-45
2023/10/10 08:05:47;;;;;;;9.88;3.67;;;;;;;23.33;50.45;95076.56;5086202;28;20225;-45
2023/10/10 08:08:25;;;;;;;14.10;4.07;;;;;;;23.34;50.10;95072.13;5087868;28;20194;-44
2023/10/10 08:10:56;;;;;;;6.28;3.45;;;;;;;23.25;50.46;95068.94;5087531;28;20697;-46
2023/10/10 08:13:28;;;;;;;12.40;4.40;;;;;;;23.17;50.51;95077.81;5091613;28;20189;-45
2023/10/10 08:16:01;;;;;;;6.70;3.95;;;;;;;22.92;51.17;95077.66;5091712;28;20193;-45
2023/10/10 08:18:52;;;;;;;9.18;3.90;;;;;;;22.79;51.27;95075.06;5091403;28;20209;-45
2023/10/10 08:21:22;;;;;;;13.20;4.55;;;;;;;22.62;52.07;95090.34;5092063;28;20885;-44
2023/10/10 08:23:53;;;;;;;7.55;4.25;;;;;;;22.41;52.45;95070.53;5092055;28;20244;-44
2023/10/10 08:26:26;;;;;;;9.32;3.78;;;;;;;22.47;52.69;95085.34;5091921;28;20194;-45
2023/10/10 08:28:54;;;;;;;9.55;3.78;;;;;;;22.30;53.01;95081.53;5092454;28;20189;-44
2023/10/10 08:31:22;;;;;;;9.32;3.78;;;;;;;22.18;53.60;95075.31;5092010;28;20192;-45
2023/10/10 08:33:49;;;;;;;9.55;3.85;;;;;;;22.00;53.76;95078.50;5091670;28;20626;-47
2023/10/10 08:36:24;;;;;;;5.93;3.40;;;;;;;21.89;54.19;95084.28;5090879;28;20621;-44
2023/10/10 08:38:51;;;;;;;10.27;4.18;;;;;;;21.69;54.79;95076.44;5092835;28;20185;-43
2023/10/10 08:41:23;;;;;;;6.93;4.25;;;;;;;21.54;55.35;95077.41;5092415;28;20204;-44
2023/10/10 08:43:57;;;;;;;18.27;4.63;;;;;;;21.44;55.63;95086.56;5091433;28;20284;-45
2023/10/10 08:46:29;;;;;;;9.38;3.92;;;;;;;21.33;55.88;95092.31;5089154;28;20196;-45
2023/10/10 08:48:59;;;;;;;7.72;3.95;;;;;;;21.20;56.02;95086.06;5091624;28;20208;-46
2023/10/10 08:51:32;;;;;;;9.85;4.03;;;;;;;21.08;56.95;95086.81;5089695;28;20221;-45
2023/10/10 08:54:01;;;;;;;10.05;3.90;;;;;;;20.60;57.10;95021.75;5091066;28;20200;-44
2023/10/10 08:56:37;;;;;;;9.23;4.10;;;;;;;20.97;57.32;95086.34;5091039;28;20193;-44
2023/10/10 08:59:04;;;;;;;8.90;4.53;;;;;;;20.78;57.40;95068.84;5089615;28;20193;-42
2023/10/10 09:01:33;;;;;;;6.10;3.78;;;;;;;20.86;57.85;95092.09;5090937;28;20186;-46
2023/10/10 09:04:03;;;;;;;9.25;4.10;;;;;;;20.87;57.88;95090.28;5092968;28;20198;-46
2023/10/10 09:06:34;;;;;;;12.55;5.00;;;;;;;20.86;57.56;95063.50;5094306;28;20246;-43
2023/10/10 09:09:32;;;;;;;7.55;3.72;;;;;;;21.00;57.54;95087.75;5095501;28;20189;-44
2023/10/10 09:11:52;;;;;;;5.88;4.05;;;;;;;20.97;57.32;95088.13;5099317;28;20213;-44
2023/10/10 09:14:20;;;;;;;6.22;4.07;;;;;;;21.04;57.42;95088.97;5094614;28;20572;-43
2023/10/10 09:16:46;;;;;;;10.95;3.80;;;;;;;20.64;57.36;95021.19;5090860;28;20178;-45
2023/10/10 09:19:14;;;;;;;6.47;3.75;;;;;;;21.13;57.49;95090.44;5090546;28;20276;-44
2023/10/10 09:21:50;;;;;;;8.13;4.05;;;;;;;21.21;57.30;95089.47;5090513;28;20198;-44
2023/10/10 09:24:28;;;;;;;7.55;3.65;;;;;;;21.22;57.17;95091.88;5089984;28;20189;-44
2023/10/10 09:26:58;;;;;;;7.30;3.83;;;;;;;21.26;56.95;95097.50;5090981;28;20201;-44
2023/10/10 09:29:34;;;;;;;4.90;3.45;;;;;;;21.31;56.77;95097.72;5090503;28;20251;-42
2023/10/10 09:32:02;;;;;;;6.53;4.05;;;;;;;21.34;56.32;95091.34;5090572;28;20197;-43
2023/10/10 09:34:40;;;;;;;6.53;3.85;;;;;;;20.96;56.44;95030.13;5090039;28;20251;-43
2023/10/10 09:37:10;;;;;;;7.43;3.35;;;;;;;21.41;56.67;95092.97;5090282;28;20203;-46
2023/10/10 09:39:38;;;;;;;9.50;3.58;;;;;;;21.40;56.38;95080.16;5090236;28;20520;-44
2023/10/10 09:42:23;;;;;;;4.32;3.25;;;;;;;21.64;56.09;95094.47;5090912;28;20185;-45
2023/10/10 09:45:17;;;;;;;8.88;3.38;;;;;;;21.63;55.62;95096.25;5089883;28;20302;-43
2023/10/10 09:47:52;;;;;;;5.32;3.53;;;;;;;21.53;55.93;95099.22;5089860;28;20189;-45
2023/10/10 09:50:35;;;;;;;5.88;3.60;;;;;;;21.58;56.06;95090.81;5089859;28;20204;-44
2023/10/10 09:53:01;;;;;;;8.50;3.50;;;;;;;21.63;55.76;95083.25;5090406;28;21772;-44
2023/10/10 09:55:42;;;;;;;8.15;3.63;;;;;;;21.86;55.55;95090.69;5089824;28;20567;-45
2023/10/10 09:58:25;;;;;;;9.23;3.75;;;;;;;21.73;55.14;95033.41;5091160;28;20213;-44
2023/10/10 10:00:54;;;;;;;8.20;3.30;;;;;;;22.23;54.08;95084.13;5088248;28;20276;-45
2023/10/10 10:03:35;;;;;;;6.70;2.90;;;;;;;22.22;54.39;95076.53;5089590;28;20193;-46
2023/10/10 10:06:34;;;;;;;5.22;3.40;;;;;;;22.26;54.56;95082.94;5089675;28;20304;-45
2023/10/10 10:09:17;;;;;;;4.50;3.83;;;;;;;22.33;54.40;95081.16;5088139;28;20259;-44
2023/10/10 10:12:03;;;;;;;6.25;2.97;;;;;;;22.41;53.94;95075.75;5090223;28;20600;-45
2023/10/10 10:14:37;;;;;;;10.32;3.15;;;;;;;22.35;53.82;95079.13;5089608;28;20288;-43
2023/10/10 10:17:13;;;;;;;6.88;2.90;;;;;;;22.40;53.88;95075.91;5089997;28;20185;-43
2023/10/10 10:19:45;;;;;;;5.35;3.42;;;;;;;22.45;53.47;95065.69;5090130;28;20210;-44
2023/10/10 10:22:17;;;;;;;4.63;2.97;;;;;;;22.45;53.71;95071.72;5087152;28;20186;-45
2023/10/10 10:25:20;;;;;;;5.95;3.10;;;;;;;22.37;53.94;95060.72;5088092;28;20206;-43
2023/10/10 10:27:49;;;;;;;6.63;3.22;;;;;;;22.37;54.03;95058.91;5087264;28;20258;-45
2023/10/10 10:32:59;;;;;;;9.20;3.10;;;;;;;22.37;54.35;95053.69;5090618;28;20251;-44
2023/10/10 10:35:36;;;;;;;8.63;3.58;;;;;;;22.04;54.45;95023.19;5089401;28;20186;-44
2023/10/10 10:38:06;;;;;;;6.85;3.13;;;;;;;22.11;54.38;95057.06;5088627;28;20572;-44
2023/10/10 10:40:42;;;;;;;5.25;3.45;;;;;;;22.02;54.64;95055.63;5089975;28;20198;-43
2023/10/10 10:43:14;;;;;;;6.25;2.70;;;;;;;21.29;54.65;94954.03;5089528;28;20280;-43
2023/10/10 10:45:45;;;;;;;6.20;2.88;;;;;;;21.86;55.13;95048.25;5088884;28;20256;-45
2023/10/10 10:48:29;;;;;;;5.45;2.75;;;;;;;21.75;55.18;95042.59;5089768;28;20228;-46
2023/10/10 10:51:03;;;;;;;8.10;3.22;;;;;;;21.79;54.96;95043.00;5089012;28;20209;-44
2023/10/10 10:53:38;;;;;;;6.65;2.40;;;;;;;21.74;55.18;95045.41;5088722;28;20602;-45
2023/10/10 11:01:55;;;;;;;4.22;2.42;;;;;;;21.63;55.22;95040.78;5086101;27;21423;-44
2023/10/10 11:04:43;;;;;;;4.25;2.65;;;;;;;21.60;55.28;95039.38;5086300;28;20271;-45
2023/10/10 11:07:15;;;;;;;9.70;2.53;;;;;;;21.62;55.24;95034.75;5086126;28;20190;-45
2023/10/10 11:09:52;;;;;;;9.05;3.70;;;;;;;21.63;55.09;95035.56;5086577;28;20189;-45
2023/10/10 11:12:28;;;;;;;4.22;2.95;;;;;;;21.65;55.09;95039.59;5086394;28;20271;-46
2023/10/10 11:14:58;;;;;;;6.28;3.45;;;;;;;21.64;55.00;95043.19;5086127;28;20190;-43
2023/10/10 11:17:27;;;;;;;4.82;3.00;;;;;;;21.60;54.68;95041.19;5087219;28;20193;-44
2023/10/10 11:19:54;;;;;;;5.25;2.92;;;;;;;21.57;54.98;95044.97;5086757;28;20782;-45
2023/10/10 11:25:05;;;;;;;7.85;3.20;;;;;;;21.39;55.30;95036.94;5084048;28;20854;-44
2023/10/10 11:27:43;;;;;;;5.13;2.85;;;;;;;21.36;55.32;95037.31;5086378;28;20181;-44
2023/10/10 11:30:11;;;;;;;7.50;3.35;;;;;;;21.33;55.37;95030.72;5085915;28;20256;-45
2023/10/10 11:32:47;;;;;;;8.93;3.20;;;;;;;21.37;55.63;95037.09;5085943;28;20196;-45
2023/10/10 11:35:22;;;;;;;11.80;3.30;;;;;;;21.39;55.10;95036.94;5086738;28;20251;-44
2023/10/10 11:37:59;;;;;;;7.20;3.38;;;;;;;21.17;55.07;95002.41;5087397;28;20193;-44
2023/10/10 11:40:32;;;;;;;6.80;3.00;;;;;;;21.31;55.32;95027.47;5089146;28;20596;-46
2023/10/10 11:43:03;;;;;;;6.63;3.58;;;;;;;21.32;55.07;95031.69;5086729;28;20190;-44
2023/10/10 11:45:31;;;;;;;4.97;3.00;;;;;;;21.33;55.19;95037.69;5085194;28;20556;-44
2023/10/10 11:48:00;;;;;;;7.53;3.70;;;;;;;21.28;55.58;95033.84;5085526;28;20186;-45
2023/10/10 11:50:44;;;;;;;6.57;3.45;;;;;;;21.21;55.66;95032.25;5085079;28;20201;-44
2023/10/10 11:53:14;;;;;;;6.45;3.50;;;;;;;21.21;56.24;95046.03;5085111;28;20182;-45
2023/10/10 11:55:41;;;;;;;6.63;3.55;;;;;;;21.18;55.98;95035.22;5084708;28;20178;-44
2023/10/10 11:58:16;;;;;;;3.88;2.92;;;;;;;21.11;56.32;95036.97;5085773;28;20314;-45
2023/10/10 12:00:43;;;;;;;6.50;3.80;;;;;;;21.03;56.38;95035.38;5084565;28;20785;-44
2023/10/10 12:03:12;;;;;;;8.73;3.35;;;;;;;20.97;56.28;95020.53;5085499;28;20220;-44
2023/10/10 12:05:48;;;;;;;8.57;3.03;;;;;;;20.96;56.53;95029.34;5085675;28;20251;-44
2023/10/10 12:08:17;;;;;;;12.98;3.85;;;;;;;20.90;56.70;95027.53;5085390;28;20209;-43
2023/10/10 12:10:52;;;;;;;6.13;2.97;;;;;;;20.86;56.80;95018.50;5085130;28;20190;-45
2023/10/10 12:13:33;;;;;;;7.85;3.17;;;;;;;20.84;56.99;95023.88;5071986;28;20199;-45
2023/10/10 12:16:07;;;;;;;5.97;2.80;;;;;;;20.81;56.65;95026.84;5071109;28;20882;-45
2023/10/10 12:18:36;;;;;;;8.32;3.08;;;;;;;20.77;56.67;95023.84;5072049;28;20199;-44
2023/10/10 12:21:03;;;;;;;10.93;3.45;;;;;;;20.78;56.47;95022.84;5069217;28;20220;-46
2023/10/10 12:23:31;;;;;;;13.85;4.07;;;;;;;20.77;56.56;95031.66;5071636;28;20214;-45
2023/10/10 12:25:59;;;;;;;8.90;3.47;;;;;;;20.74;56.40;95023.44;5071172;28;20197;-42
2023/10/10 12:28:26;;;;;;;12.07;3.30;;;;;;;20.77;56.61;95023.84;5070998;28;20198;-45
2023/10/10 12:30:56;;;;;;;13.68;3.05;;;;;;;20.77;56.44;95036.84;5070559;28;20683;-43
2023/10/10 12:33:23;;;;;;;6.20;2.92;;;;;;;20.70;56.56;95030.00;5070999;28;20193;-42
2023/10/10 12:35:52;;;;;;;6.47;3.10;;;;;;;20.65;56.77;95032.38;5074464;28;20201;-43
2023/10/10 12:38:21;;;;;;;7.22;3.70;;;;;;;20.58;56.43;95015.94;5070541;28;20198;-44
2023/10/10 12:40:49;;;;;;;8.50;3.08;;;;;;;20.62;56.68;95030.97;5070736;28;20214;-43
2023/10/10 12:43:16;;;;;;;13.55;3.95;;;;;;;20.56;56.57;95023.94;5071748;28;20197;-43
2023/10/10 12:45:42;;;;;;;7.55;3.08;;;;;;;20.58;56.64;95023.75;5071172;28;20194;-43
2023/10/10 12:48:14;;;;;;;13.18;3.20;;;;;;;20.56;56.92;95028.34;5072692;28;20197;-43
2023/10/10 12:50:42;;;;;;;6.97;3.22;;;;;;;20.51;57.18;95015.91;5071235;28;20202;-44
2023/10/10 12:53:15;;;;;;;9.18;3.22;;;;;;;20.55;57.15;95035.31;5070643;28;20194;-44
2023/10/10 12:55:48;;;;;;;9.30;3.65;;;;;;;20.48;57.09;95030.09;5070317;28;20198;-44
2023/10/10 12:58:16;;;;;;;14.40;3.47;;;;;;;20.50;57.10;95035.88;5069821;28;20233;-42
2023/10/10 13:00:51;;;;;;;10.82;4.05;;;;;;;20.45;56.98;95019.22;5069736;28;20318;-47
2023/10/10 13:03:18;;;;;;;14.68;3.05;;;;;;;20.49;57.27;95034.28;5071595;28;20213;-45
2023/10/10 13:05:48;;;;;;;5.95;3.50;;;;;;;20.53;57.13;95025.13;5072032;28;20677;-43
2023/10/10 13:08:17;;;;;;;7.88;3.70;;;;;;;20.48;56.93;95014.50;5069999;28;20198;-44
2023/10/10 13:10:45;;;;;;;9.30;3.70;;;;;;;20.52;57.18;95017.50;5070088;28;20285;-44
2023/10/10 13:13:15;;;;;;;8.25;3.70;;;;;;;20.47;57.20;95014.66;5070462;28;20198;-43
2023/10/10 13:15:50;;;;;;;7.80;3.53;;;;;;;20.48;57.14;95029.28;5070037;28;20191;-43
2023/10/10 13:18:24;;;;;;;6.60;3.38;;;;;;;20.46;57.46;95015.63;5071995;28;20247;-43
2023/10/10 13:20:53;;;;;;;7.35;3.67;;;;;;;20.47;57.34;95020.66;5071216;28;20218;-51
2023/10/10 13:23:21;;;;;;;13.50;3.92;;;;;;;20.04;57.25;94948.06;5069667;28;20187;-44
2023/10/10 13:25:49;;;;;;;11.00;3.42;;;;;;;20.51;57.36;95026.31;5070093;28;20259;-44
2023/10/10 13:28:20;;;;;;;7.60;3.33;;;;;;;20.52;57.45;95020.13;5070581;28;20267;-46
2023/10/10 13:30:47;;;;;;;9.05;3.17;;;;;;;20.58;57.44;95027.13;5070878;28;20225;-44
2023/10/10 13:33:14;;;;;;;8.00;3.22;;;;;;;20.60;57.41;95019.16;5072259;28;20197;-49
2023/10/10 13:35:41;;;;;;;12.55;2.75;;;;;;;20.60;57.28;95019.16;5080331;28;20213;-45
2023/10/10 13:38:09;;;;;;;11.38;4.03;;;;;;;20.68;57.48;95024.19;5080493;28;20541;-45
2023/10/10 13:40:45;;;;;;;9.35;3.22;;;;;;;20.65;57.79;95020.19;5069530;28;20297;-44
2023/10/10 13:43:16;;;;;;;9.52;3.50;;;;;;;20.65;57.66;95020.19;5069475;28;20289;-45
2023/10/10 13:45:45;;;;;;;9.80;4.07;;;;;;;20.65;57.67;95024.59;5068123;28;20194;-43
2023/10/10 13:48:14;;;;;;;6.22;3.70;;;;;;;20.50;57.81;95009.09;5068990;28;20805;-43
2023/10/10 13:50:44;;;;;;;12.67;4.10;;;;;;;20.58;58.11;95037.53;5069222;28;20685;-45
2023/10/10 13:53:13;;;;;;;10.43;3.42;;;;;;;20.59;58.27;95026.13;5069059;28;20219;-45
2023/10/10 13:55:42;;;;;;;9.32;3.80;;;;;;;20.60;57.89;95025.16;5068652;28;20205;-44
2023/10/10 13:58:12;;;;;;;7.57;4.05;;;;;;;20.54;58.07;95023.31;5069097;28;20218;-43
2023/10/10 14:00:41;;;;;;;13.45;4.55;;;;;;;20.49;58.18;95026.47;5068504;28;20233;-44
2023/10/10 14:03:07;;;;;;;10.40;4.10;;;;;;;20.47;58.27;95030.25;5069458;28;20202;-44
2023/10/10 14:05:35;;;;;;;6.53;3.60;;;;;;;20.46;58.09;95032.03;5071457;28;20543;-43